sensor_id;sensor_type;location;lat;lon;timestamp;P1;durP1;ratioP1;P2;durP2;ratioP2
76723;SDS011;65650;53.126;17.950;2023-02-19T00:00:33;7.00;;;2.10;;
76723;SDS011;65650;53.126;17.950;2023-02-19T00:03:21;3.80;;;1.40;;
76723;SDS011;65650;53.126;17.950;2023-02-19T00:05:49;5.30;;;1.90;;
76723;SDS011;65650;53.126;17.950;2023-02-19T00:08:17;6.40;;;2.00;;
76723;SDS011;65650;53.126;17.950;2023-02-19T00:10:44;7.30;;;2.10;;
76723;SDS011;65650;53.126;17.950;2023-02-19T00:13:11;4.70;;;2.10;;
76723;SDS011;65650;53.126;17.950;2023-02-19T00:15:38;4.30;;;2.30;;
76723;SDS011;65650;53.126;17.950;2023-02-19T00:18:05;8.10;;;2.40;;
76723;SDS011;65650;53.126;17.950;2023-02-19T00:20:31;7.90;;;2.50;;
76723;SDS011;65650;53.126;17.950;2023-02-19T00:22:59;7.10;;;2.50;;
76723;SDS011;65650;53.126;17.950;2023-02-19T00:25:26;8.50;;;2.60;;
76723;SDS011;65650;53.126;17.950;2023-02-19T00:27:53;6.80;;;2.40;;
76723;SDS011;65650;53.126;17.950;2023-02-19T00:30:21;6.30;;;2.10;;
76723;SDS011;65650;53.126;17.950;2023-02-19T00:32:51;5.40;;;2.20;;
76723;SDS011;65650;53.126;17.950;2023-02-19T00:35:18;7.60;;;3.10;;
76723;SDS011;65650;53.126;17.950;2023-02-19T00:37:44;10.00;;;2.40;;
76723;SDS011;65650;53.126;17.950;2023-02-19T00:40:11;7.30;;;2.20;;
76723;SDS011;65650;53.126;17.950;2023-02-19T00:42:41;8.10;;;2.10;;
76723;SDS011;65650;53.126;17.950;2023-02-19T00:45:08;12.10;;;2.90;;
76723;SDS011;65650;53.126;17.950;2023-02-19T00:47:35;13.20;;;2.90;;
76723;SDS011;65650;53.126;17.950;2023-02-19T00:50:01;7.60;;;2.80;;
76723;SDS011;65650;53.126;17.950;2023-02-19T00:52:29;7.20;;;2.10;;
76723;SDS011;65650;53.126;17.950;2023-02-19T00:54:56;5.80;;;1.80;;
76723;SDS011;65650;53.126;17.950;2023-02-19T00:57:23;7.50;;;2.30;;
76723;SDS011;65650;53.126;17.950;2023-02-19T00:59:49;6.10;;;1.90;;
76723;SDS011;65650;53.126;17.950;2023-02-19T01:02:16;8.40;;;2.20;;
76723;SDS011;65650;53.126;17.950;2023-02-19T01:04:43;8.00;;;2.60;;
76723;SDS011;65650;53.126;17.950;2023-02-19T01:07:10;5.90;;;2.20;;
76723;SDS011;65650;53.126;17.950;2023-02-19T01:09:37;8.70;;;1.90;;
76723;SDS011;65650;53.126;17.950;2023-02-19T01:12:04;4.90;;;2.10;;
76723;SDS011;65650;53.126;17.950;2023-02-19T01:14:32;9.90;;;2.20;;
76723;SDS011;65650;53.126;17.950;2023-02-19T01:16:59;10.00;;;2.10;;
76723;SDS011;65650;53.126;17.950;2023-02-19T01:19:25;5.20;;;2.00;;
76723;SDS011;65650;53.126;17.950;2023-02-19T01:21:52;6.70;;;2.20;;
76723;SDS011;65650;53.126;17.950;2023-02-19T01:24:19;6.10;;;1.90;;
76723;SDS011;65650;53.126;17.950;2023-02-19T01:26:45;7.60;;;2.20;;
76723;SDS011;65650;53.126;17.950;2023-02-19T01:29:12;5.40;;;1.70;;
76723;SDS011;65650;53.126;17.950;2023-02-19T01:31:39;7.50;;;2.30;;
76723;SDS011;65650;53.126;17.950;2023-02-19T01:34:08;9.70;;;2.20;;
76723;SDS011;65650;53.126;17.950;2023-02-19T01:36:37;8.30;;;2.50;;
76723;SDS011;65650;53.126;17.950;2023-02-19T01:39:06;11.10;;;2.10;;
76723;SDS011;65650;53.126;17.950;2023-02-19T01:41:36;5.30;;;1.40;;
76723;SDS011;65650;53.126;17.950;2023-02-19T01:46:43;7.30;;;2.50;;
76723;SDS011;65650;53.126;17.950;2023-02-19T01:49:17;10.50;;;3.00;;
76723;SDS011;65650;53.126;17.950;2023-02-19T01:51:53;7.50;;;2.40;;
76723;SDS011;65650;53.126;17.950;2023-02-19T01:54:25;6.60;;;2.00;;
76723;SDS011;65650;53.126;17.950;2023-02-19T01:56:55;9.60;;;3.10;;
76723;SDS011;65650;53.126;17.950;2023-02-19T01:59:24;10.90;;;4.20;;
76723;SDS011;65650;53.126;17.950;2023-02-19T02:01:51;7.00;;;2.50;;
76723;SDS011;65650;53.126;17.950;2023-02-19T02:04:18;9.50;;;2.80;;
76723;SDS011;65650;53.126;17.950;2023-02-19T02:06:51;11.30;;;3.00;;
76723;SDS011;65650;53.126;17.950;2023-02-19T02:09:21;7.40;;;2.30;;
76723;SDS011;65650;53.126;17.950;2023-02-19T02:12:13;9.60;;;2.90;;
76723;SDS011;65650;53.126;17.950;2023-02-19T02:14:42;10.50;;;3.00;;
76723;SDS011;65650;53.126;17.950;2023-02-19T02:17:25;7.50;;;2.50;;
76723;SDS011;65650;53.126;17.950;2023-02-19T02:23:08;7.70;;;2.20;;
76723;SDS011;65650;53.126;17.950;2023-02-19T02:34:35;6.50;;;2.60;;
76723;SDS011;65650;53.126;17.950;2023-02-19T02:37:15;9.40;;;2.70;;
76723;SDS011;65650;53.126;17.950;2023-02-19T02:39:43;7.60;;;2.60;;
76723;SDS011;65650;53.126;17.950;2023-02-19T02:42:11;7.10;;;2.60;;
76723;SDS011;65650;53.126;17.950;2023-02-19T02:50:40;7.70;;;1.80;;
76723;SDS011;65650;53.126;17.950;2023-02-19T02:53:22;8.10;;;1.90;;
76723;SDS011;65650;53.126;17.950;2023-02-19T02:56:16;6.70;;;2.40;;
76723;SDS011;65650;53.126;17.950;2023-02-19T02:58:45;4.40;;;1.50;;
76723;SDS011;65650;53.126;17.950;2023-02-19T03:01:26;5.30;;;2.20;;
76723;SDS011;65650;53.126;17.950;2023-02-19T03:04:28;5.20;;;1.70;;
76723;SDS011;65650;53.126;17.950;2023-02-19T03:07:03;7.40;;;2.30;;
76723;SDS011;65650;53.126;17.950;2023-02-19T03:09:38;7.80;;;2.50;;
76723;SDS011;65650;53.126;17.950;2023-02-19T03:12:10;9.60;;;2.00;;
76723;SDS011;65650;53.126;17.950;2023-02-19T03:15:00;8.60;;;3.00;;
76723;SDS011;65650;53.126;17.950;2023-02-19T03:17:54;6.60;;;2.20;;
76723;SDS011;65650;53.126;17.950;2023-02-19T03:20:46;4.50;;;2.00;;
76723;SDS011;65650;53.126;17.950;2023-02-19T03:23:17;9.40;;;2.70;;
76723;SDS011;65650;53.126;17.950;2023-02-19T03:25:46;11.80;;;3.20;;
76723;SDS011;65650;53.126;17.950;2023-02-19T03:28:39;6.40;;;1.80;;
76723;SDS011;65650;53.126;17.950;2023-02-19T03:31:39;5.90;;;1.90;;
76723;SDS011;65650;53.126;17.950;2023-02-19T03:34:09;8.80;;;2.70;;
76723;SDS011;65650;53.126;17.950;2023-02-19T03:36:42;7.40;;;2.70;;
76723;SDS011;65650;53.126;17.950;2023-02-19T03:39:11;6.10;;;1.80;;
76723;SDS011;65650;53.126;17.950;2023-02-19T04:06:55;7.80;;;2.60;;
76723;SDS011;65650;53.126;17.950;2023-02-19T04:09:36;5.30;;;1.90;;
76723;SDS011;65650;53.126;17.950;2023-02-19T04:12:09;8.70;;;2.10;;
76723;SDS011;65650;53.126;17.950;2023-02-19T04:14:42;10.60;;;3.00;;
76723;SDS011;65650;53.126;17.950;2023-02-19T04:17:26;10.50;;;3.00;;
76723;SDS011;65650;53.126;17.950;2023-02-19T04:20:24;7.90;;;2.50;;
76723;SDS011;65650;53.126;17.950;2023-02-19T04:22:55;11.30;;;3.00;;
76723;SDS011;65650;53.126;17.950;2023-02-19T04:25:23;6.70;;;2.20;;
76723;SDS011;65650;53.126;17.950;2023-02-19T04:27:53;12.30;;;3.10;;
76723;SDS011;65650;53.126;17.950;2023-02-19T04:30:20;11.30;;;3.70;;
76723;SDS011;65650;53.126;17.950;2023-02-19T04:32:46;12.20;;;4.20;;
76723;SDS011;65650;53.126;17.950;2023-02-19T04:35:14;11.60;;;3.60;;
76723;SDS011;65650;53.126;17.950;2023-02-19T04:37:41;9.80;;;2.60;;
76723;SDS011;65650;53.126;17.950;2023-02-19T04:40:08;17.20;;;4.80;;
76723;SDS011;65650;53.126;17.950;2023-02-19T04:42:36;12.60;;;3.50;;
76723;SDS011;65650;53.126;17.950;2023-02-19T04:45:03;11.60;;;2.90;;
76723;SDS011;65650;53.126;17.950;2023-02-19T04:47:30;8.40;;;2.80;;
76723;SDS011;65650;53.126;17.950;2023-02-19T04:49:59;8.40;;;2.30;;
76723;SDS011;65650;53.126;17.950;2023-02-19T04:52:26;9.80;;;2.50;;
76723;SDS011;65650;53.126;17.950;2023-02-19T04:54:52;16.50;;;5.20;;
76723;SDS011;65650;53.126;17.950;2023-02-19T04:57:19;15.00;;;5.00;;
76723;SDS011;65650;53.126;17.950;2023-02-19T04:59:46;11.70;;;3.20;;
76723;SDS011;65650;53.126;17.950;2023-02-19T05:02:12;17.30;;;5.60;;
76723;SDS011;65650;53.126;17.950;2023-02-19T05:04:39;13.40;;;4.40;;
76723;SDS011;65650;53.126;17.950;2023-02-19T05:07:06;16.20;;;5.60;;
76723;SDS011;65650;53.126;17.950;2023-02-19T05:09:33;13.50;;;5.50;;
76723;SDS011;65650;53.126;17.950;2023-02-19T05:12:00;15.30;;;4.60;;
76723;SDS011;65650;53.126;17.950;2023-02-19T05:14:27;21.90;;;6.40;;
76723;SDS011;65650;53.126;17.950;2023-02-19T05:16:53;15.00;;;5.10;;
76723;SDS011;65650;53.126;17.950;2023-02-19T05:19:20;14.90;;;4.00;;
76723;SDS011;65650;53.126;17.950;2023-02-19T05:21:47;12.10;;;4.00;;
76723;SDS011;65650;53.126;17.950;2023-02-19T05:24:13;11.70;;;3.20;;
76723;SDS011;65650;53.126;17.950;2023-02-19T05:26:40;11.80;;;3.00;;
76723;SDS011;65650;53.126;17.950;2023-02-19T05:29:07;8.60;;;2.40;;
76723;SDS011;65650;53.126;17.950;2023-02-19T05:31:33;7.40;;;2.70;;
76723;SDS011;65650;53.126;17.950;2023-02-19T05:34:00;12.70;;;3.00;;
76723;SDS011;65650;53.126;17.950;2023-02-19T05:36:27;12.30;;;3.60;;
76723;SDS011;65650;53.126;17.950;2023-02-19T05:38:54;10.00;;;3.10;;
76723;SDS011;65650;53.126;17.950;2023-02-19T05:41:23;17.50;;;4.90;;
76723;SDS011;65650;53.126;17.950;2023-02-19T05:43:52;9.60;;;2.90;;
76723;SDS011;65650;53.126;17.950;2023-02-19T05:46:20;7.50;;;2.20;;
76723;SDS011;65650;53.126;17.950;2023-02-19T05:48:49;13.20;;;4.70;;
76723;SDS011;65650;53.126;17.950;2023-02-19T05:51:18;18.70;;;6.00;;
76723;SDS011;65650;53.126;17.950;2023-02-19T05:53:46;12.10;;;3.50;;
76723;SDS011;65650;53.126;17.950;2023-02-19T05:56:21;10.00;;;3.80;;
76723;SDS011;65650;53.126;17.950;2023-02-19T05:58:52;12.70;;;3.40;;
76723;SDS011;65650;53.126;17.950;2023-02-19T06:01:20;18.00;;;5.80;;
76723;SDS011;65650;53.126;17.950;2023-02-19T06:03:49;15.70;;;5.20;;
76723;SDS011;65650;53.126;17.950;2023-02-19T06:06:17;16.40;;;5.30;;
76723;SDS011;65650;53.126;17.950;2023-02-19T06:08:46;20.50;;;6.80;;
76723;SDS011;65650;53.126;17.950;2023-02-19T06:11:15;20.80;;;5.70;;
76723;SDS011;65650;53.126;17.950;2023-02-19T06:13:42;28.90;;;10.10;;
76723;SDS011;65650;53.126;17.950;2023-02-19T06:16:09;22.00;;;6.90;;
76723;SDS011;65650;53.126;17.950;2023-02-19T06:18:36;38.20;;;11.00;;
76723;SDS011;65650;53.126;17.950;2023-02-19T06:21:06;27.90;;;6.10;;
76723;SDS011;65650;53.126;17.950;2023-02-19T06:23:36;48.20;;;12.40;;
76723;SDS011;65650;53.126;17.950;2023-02-19T06:26:07;36.10;;;9.70;;
76723;SDS011;65650;53.126;17.950;2023-02-19T06:28:36;48.60;;;14.30;;
76723;SDS011;65650;53.126;17.950;2023-02-19T06:31:05;26.10;;;7.80;;
76723;SDS011;65650;53.126;17.950;2023-02-19T06:33:33;34.30;;;8.60;;
76723;SDS011;65650;53.126;17.950;2023-02-19T06:36:01;32.70;;;9.60;;
76723;SDS011;65650;53.126;17.950;2023-02-19T06:38:29;21.60;;;7.10;;
76723;SDS011;65650;53.126;17.950;2023-02-19T06:41:00;24.40;;;8.40;;
76723;SDS011;65650;53.126;17.950;2023-02-19T06:43:28;22.30;;;8.30;;
76723;SDS011;65650;53.126;17.950;2023-02-19T06:45:57;17.40;;;4.90;;
76723;SDS011;65650;53.126;17.950;2023-02-19T06:48:28;13.70;;;5.10;;
76723;SDS011;65650;53.126;17.950;2023-02-19T06:50:56;16.40;;;6.30;;
76723;SDS011;65650;53.126;17.950;2023-02-19T06:53:23;15.40;;;4.70;;
76723;SDS011;65650;53.126;17.950;2023-02-19T06:55:57;15.50;;;4.90;;
76723;SDS011;65650;53.126;17.950;2023-02-19T06:58:31;16.70;;;6.60;;
76723;SDS011;65650;53.126;17.950;2023-02-19T07:00:59;16.60;;;6.30;;
76723;SDS011;65650;53.126;17.950;2023-02-19T07:03:26;14.50;;;5.80;;
76723;SDS011;65650;53.126;17.950;2023-02-19T07:05:53;17.40;;;6.30;;
76723;SDS011;65650;53.126;17.950;2023-02-19T07:08:20;28.30;;;8.40;;
76723;SDS011;65650;53.126;17.950;2023-02-19T07:10:53;23.60;;;7.60;;
76723;SDS011;65650;53.126;17.950;2023-02-19T07:13:22;23.30;;;7.00;;
76723;SDS011;65650;53.126;17.950;2023-02-19T07:15:50;21.30;;;8.00;;
76723;SDS011;65650;53.126;17.950;2023-02-19T07:18:17;22.30;;;7.00;;
76723;SDS011;65650;53.126;17.950;2023-02-19T07:20:44;19.50;;;6.20;;
76723;SDS011;65650;53.126;17.950;2023-02-19T07:23:11;21.20;;;6.30;;
76723;SDS011;65650;53.126;17.950;2023-02-19T07:25:38;22.80;;;6.60;;
76723;SDS011;65650;53.126;17.950;2023-02-19T07:28:06;31.70;;;9.50;;
76723;SDS011;65650;53.126;17.950;2023-02-19T07:30:33;22.40;;;6.70;;
76723;SDS011;65650;53.126;17.950;2023-02-19T07:33:00;19.90;;;7.10;;
76723;SDS011;65650;53.126;17.950;2023-02-19T07:35:27;13.80;;;4.60;;
76723;SDS011;65650;53.126;17.950;2023-02-19T07:37:54;13.40;;;4.30;;
76723;SDS011;65650;53.126;17.950;2023-02-19T07:40:20;17.40;;;5.80;;
76723;SDS011;65650;53.126;17.950;2023-02-19T07:42:47;10.70;;;4.30;;
76723;SDS011;65650;53.126;17.950;2023-02-19T07:45:14;17.00;;;6.70;;
76723;SDS011;65650;53.126;17.950;2023-02-19T07:47:41;14.40;;;5.30;;
76723;SDS011;65650;53.126;17.950;2023-02-19T07:50:08;23.20;;;6.60;;
76723;SDS011;65650;53.126;17.950;2023-02-19T07:52:35;33.50;;;10.00;;
76723;SDS011;65650;53.126;17.950;2023-02-19T07:55:01;23.30;;;6.90;;
76723;SDS011;65650;53.126;17.950;2023-02-19T07:57:28;13.90;;;4.00;;
76723;SDS011;65650;53.126;17.950;2023-02-19T07:59:56;13.10;;;4.90;;
76723;SDS011;65650;53.126;17.950;2023-02-19T08:02:24;12.40;;;3.70;;
76723;SDS011;65650;53.126;17.950;2023-02-19T08:05:09;14.20;;;4.80;;
76723;SDS011;65650;53.126;17.950;2023-02-19T08:07:36;18.20;;;5.80;;
76723;SDS011;65650;53.126;17.950;2023-02-19T08:10:04;12.70;;;4.80;;
76723;SDS011;65650;53.126;17.950;2023-02-19T08:12:56;13.40;;;4.20;;
76723;SDS011;65650;53.126;17.950;2023-02-19T08:15:43;9.30;;;3.40;;
76723;SDS011;65650;53.126;17.950;2023-02-19T08:18:13;7.60;;;2.60;;
76723;SDS011;65650;53.126;17.950;2023-02-19T08:20:42;13.00;;;3.50;;
76723;SDS011;65650;53.126;17.950;2023-02-19T08:23:09;11.60;;;3.80;;
76723;SDS011;65650;53.126;17.950;2023-02-19T08:25:37;17.20;;;5.30;;
76723;SDS011;65650;53.126;17.950;2023-02-19T08:28:05;19.40;;;6.50;;
76723;SDS011;65650;53.126;17.950;2023-02-19T08:30:33;13.60;;;4.30;;
76723;SDS011;65650;53.126;17.950;2023-02-19T08:33:04;17.40;;;4.80;;
76723;SDS011;65650;53.126;17.950;2023-02-19T08:35:32;13.80;;;5.10;;
76723;SDS011;65650;53.126;17.950;2023-02-19T08:38:02;14.20;;;5.10;;
76723;SDS011;65650;53.126;17.950;2023-02-19T08:40:30;7.20;;;2.80;;
76723;SDS011;65650;53.126;17.950;2023-02-19T08:43:05;15.00;;;4.40;;
76723;SDS011;65650;53.126;17.950;2023-02-19T08:45:35;11.80;;;3.80;;
76723;SDS011;65650;53.126;17.950;2023-02-19T08:48:03;15.90;;;5.70;;
76723;SDS011;65650;53.126;17.950;2023-02-19T08:50:30;16.20;;;5.80;;
76723;SDS011;65650;53.126;17.950;2023-02-19T08:52:59;15.60;;;4.80;;
76723;SDS011;65650;53.126;17.950;2023-02-19T08:55:26;11.40;;;3.40;;
76723;SDS011;65650;53.126;17.950;2023-02-19T08:57:54;13.50;;;4.70;;
76723;SDS011;65650;53.126;17.950;2023-02-19T09:00:21;14.00;;;4.00;;
76723;SDS011;65650;53.126;17.950;2023-02-19T09:02:48;13.30;;;4.40;;
76723;SDS011;65650;53.126;17.950;2023-02-19T09:05:15;13.00;;;3.70;;
76723;SDS011;65650;53.126;17.950;2023-02-19T09:07:43;10.40;;;3.10;;
76723;SDS011;65650;53.126;17.950;2023-02-19T09:10:10;9.60;;;3.50;;
76723;SDS011;65650;53.126;17.950;2023-02-19T09:12:39;16.50;;;3.80;;
76723;SDS011;65650;53.126;17.950;2023-02-19T09:15:06;12.00;;;4.50;;
76723;SDS011;65650;53.126;17.950;2023-02-19T09:17:33;13.40;;;3.60;;
76723;SDS011;65650;53.126;17.950;2023-02-19T09:20:00;11.00;;;3.60;;
76723;SDS011;65650;53.126;17.950;2023-02-19T09:22:27;13.30;;;4.70;;
76723;SDS011;65650;53.126;17.950;2023-02-19T09:24:54;19.60;;;8.80;;
76723;SDS011;65650;53.126;17.950;2023-02-19T09:27:20;12.90;;;5.10;;
76723;SDS011;65650;53.126;17.950;2023-02-19T09:29:47;14.50;;;5.20;;
76723;SDS011;65650;53.126;17.950;2023-02-19T09:32:14;11.70;;;3.40;;
76723;SDS011;65650;53.126;17.950;2023-02-19T09:34:41;33.30;;;12.80;;
76723;SDS011;65650;53.126;17.950;2023-02-19T09:37:08;15.60;;;6.00;;
76723;SDS011;65650;53.126;17.950;2023-02-19T09:39:35;12.90;;;4.70;;
76723;SDS011;65650;53.126;17.950;2023-02-19T09:42:07;8.90;;;2.60;;
76723;SDS011;65650;53.126;17.950;2023-02-19T09:44:45;11.70;;;2.70;;
76723;SDS011;65650;53.126;17.950;2023-02-19T09:47:15;11.40;;;4.00;;
76723;SDS011;65650;53.126;17.950;2023-02-19T09:49:45;14.40;;;3.50;;
76723;SDS011;65650;53.126;17.950;2023-02-19T09:52:20;12.20;;;4.40;;
76723;SDS011;65650;53.126;17.950;2023-02-19T09:54:57;12.50;;;4.40;;
76723;SDS011;65650;53.126;17.950;2023-02-19T09:57:29;11.00;;;4.10;;
76723;SDS011;65650;53.126;17.950;2023-02-19T10:00:00;15.50;;;5.20;;
76723;SDS011;65650;53.126;17.950;2023-02-19T10:02:31;13.30;;;3.90;;
76723;SDS011;65650;53.126;17.950;2023-02-19T10:04:58;18.20;;;5.00;;
76723;SDS011;65650;53.126;17.950;2023-02-19T10:07:27;14.40;;;5.40;;
76723;SDS011;65650;53.126;17.950;2023-02-19T10:12:51;13.70;;;3.80;;
76723;SDS011;65650;53.126;17.950;2023-02-19T10:18:24;22.60;;;6.40;;
76723;SDS011;65650;53.126;17.950;2023-02-19T10:20:56;13.90;;;4.80;;
76723;SDS011;65650;53.126;17.950;2023-02-19T10:23:23;15.30;;;5.10;;
76723;SDS011;65650;53.126;17.950;2023-02-19T10:25:52;14.30;;;4.60;;
76723;SDS011;65650;53.126;17.950;2023-02-19T10:28:23;13.60;;;4.50;;
76723;SDS011;65650;53.126;17.950;2023-02-19T10:30:54;19.40;;;8.00;;
76723;SDS011;65650;53.126;17.950;2023-02-19T10:33:23;15.10;;;5.80;;
76723;SDS011;65650;53.126;17.950;2023-02-19T10:38:23;35.40;;;17.40;;
76723;SDS011;65650;53.126;17.950;2023-02-19T10:41:12;16.20;;;5.40;;
76723;SDS011;65650;53.126;17.950;2023-02-19T10:43:44;18.50;;;10.00;;
76723;SDS011;65650;53.126;17.950;2023-02-19T10:46:22;21.20;;;9.80;;
76723;SDS011;65650;53.126;17.950;2023-02-19T10:48:51;12.20;;;4.10;;
76723;SDS011;65650;53.126;17.950;2023-02-19T10:51:28;10.80;;;3.40;;
76723;SDS011;65650;53.126;17.950;2023-02-19T10:54:03;10.10;;;3.00;;
76723;SDS011;65650;53.126;17.950;2023-02-19T10:56:30;16.90;;;5.90;;
76723;SDS011;65650;53.126;17.950;2023-02-19T11:04:24;9.90;;;4.30;;
76723;SDS011;65650;53.126;17.950;2023-02-19T11:06:53;13.30;;;3.80;;
76723;SDS011;65650;53.126;17.950;2023-02-19T11:09:24;27.40;;;10.50;;
76723;SDS011;65650;53.126;17.950;2023-02-19T11:11:54;27.20;;;13.60;;
76723;SDS011;65650;53.126;17.950;2023-02-19T11:14:23;18.50;;;7.00;;
76723;SDS011;65650;53.126;17.950;2023-02-19T11:16:55;18.60;;;7.20;;
76723;SDS011;65650;53.126;17.950;2023-02-19T11:24:53;11.70;;;4.70;;
76723;SDS011;65650;53.126;17.950;2023-02-19T11:27:22;12.20;;;3.90;;
76723;SDS011;65650;53.126;17.950;2023-02-19T11:29:50;18.70;;;6.80;;
76723;SDS011;65650;53.126;17.950;2023-02-19T11:34:47;38.40;;;15.70;;
76723;SDS011;65650;53.126;17.950;2023-02-19T11:37:17;23.10;;;8.70;;
76723;SDS011;65650;53.126;17.950;2023-02-19T11:39:49;14.20;;;5.50;;
76723;SDS011;65650;53.126;17.950;2023-02-19T11:50:51;11.40;;;5.00;;
76723;SDS011;65650;53.126;17.950;2023-02-19T11:53:33;15.20;;;5.20;;
76723;SDS011;65650;53.126;17.950;2023-02-19T11:56:17;24.10;;;10.00;;
76723;SDS011;65650;53.126;17.950;2023-02-19T11:59:08;14.60;;;5.70;;
76723;SDS011;65650;53.126;17.950;2023-02-19T12:10:25;11.70;;;4.40;;
76723;SDS011;65650;53.126;17.950;2023-02-19T12:15:55;11.30;;;4.80;;
76723;SDS011;65650;53.126;17.950;2023-02-19T12:18:47;10.70;;;3.30;;
76723;SDS011;65650;53.126;17.950;2023-02-19T12:21:37;11.40;;;5.10;;
76723;SDS011;65650;53.126;17.950;2023-02-19T12:41:06;13.00;;;6.10;;
76723;SDS011;65650;53.126;17.950;2023-02-19T12:43:54;8.50;;;3.70;;
76723;SDS011;65650;53.126;17.950;2023-02-19T12:46:26;8.90;;;3.40;;
76723;SDS011;65650;53.126;17.950;2023-02-19T12:49:22;7.40;;;3.00;;
76723;SDS011;65650;53.126;17.950;2023-02-19T12:51:57;16.60;;;5.70;;
76723;SDS011;65650;53.126;17.950;2023-02-19T12:55:10;9.10;;;3.10;;
76723;SDS011;65650;53.126;17.950;2023-02-19T12:57:46;7.40;;;2.50;;
76723;SDS011;65650;53.126;17.950;2023-02-19T13:00:22;6.80;;;2.50;;
76723;SDS011;65650;53.126;17.950;2023-02-19T13:05:54;9.80;;;4.30;;
76723;SDS011;65650;53.126;17.950;2023-02-19T13:08:44;16.10;;;7.40;;
76723;SDS011;65650;53.126;17.950;2023-02-19T13:11:15;14.20;;;7.00;;
76723;SDS011;65650;53.126;17.950;2023-02-19T13:13:47;22.60;;;14.00;;
76723;SDS011;65650;53.126;17.950;2023-02-19T13:16:18;8.60;;;4.70;;
76723;SDS011;65650;53.126;17.950;2023-02-19T13:18:49;13.20;;;3.70;;
76723;SDS011;65650;53.126;17.950;2023-02-19T13:21:20;25.50;;;12.20;;
76723;SDS011;65650;53.126;17.950;2023-02-19T13:24:09;31.30;;;17.70;;
76723;SDS011;65650;53.126;17.950;2023-02-19T13:38:08;14.90;;;4.80;;
76723;SDS011;65650;53.126;17.950;2023-02-19T13:40:39;10.10;;;3.50;;
76723;SDS011;65650;53.126;17.950;2023-02-19T13:43:23;14.50;;;5.60;;
76723;SDS011;65650;53.126;17.950;2023-02-19T13:45:55;13.40;;;5.50;;
76723;SDS011;65650;53.126;17.950;2023-02-19T13:48:38;21.20;;;8.80;;
76723;SDS011;65650;53.126;17.950;2023-02-19T14:04:24;15.50;;;7.00;;
76723;SDS011;65650;53.126;17.950;2023-02-19T14:14:42;9.40;;;5.10;;
76723;SDS011;65650;53.126;17.950;2023-02-19T14:17:27;42.00;;;19.20;;
76723;SDS011;65650;53.126;17.950;2023-02-19T14:30:30;13.00;;;6.40;;
76723;SDS011;65650;53.126;17.950;2023-02-19T14:33:01;13.80;;;6.40;;
76723;SDS011;65650;53.126;17.950;2023-02-19T14:35:39;10.70;;;4.30;;
76723;SDS011;65650;53.126;17.950;2023-02-19T14:38:29;9.40;;;4.70;;
76723;SDS011;65650;53.126;17.950;2023-02-19T14:41:00;8.50;;;3.50;;
76723;SDS011;65650;53.126;17.950;2023-02-19T14:43:28;7.20;;;3.00;;
76723;SDS011;65650;53.126;17.950;2023-02-19T14:45:59;6.30;;;2.50;;
76723;SDS011;65650;53.126;17.950;2023-02-19T14:48:38;9.70;;;3.10;;
76723;SDS011;65650;53.126;17.950;2023-02-19T14:53:52;6.80;;;2.80;;
76723;SDS011;65650;53.126;17.950;2023-02-19T14:56:25;19.10;;;10.40;;
76723;SDS011;65650;53.126;17.950;2023-02-19T14:59:07;17.40;;;4.70;;
76723;SDS011;65650;53.126;17.950;2023-02-19T15:02:21;13.70;;;4.70;;
76723;SDS011;65650;53.126;17.950;2023-02-19T15:04:43;13.80;;;4.30;;
76723;SDS011;65650;53.126;17.950;2023-02-19T15:07:12;18.20;;;5.60;;
76723;SDS011;65650;53.126;17.950;2023-02-19T15:09:48;18.90;;;6.40;;
76723;SDS011;65650;53.126;17.950;2023-02-19T15:12:21;14.40;;;5.20;;
76723;SDS011;65650;53.126;17.950;2023-02-19T15:14:51;15.50;;;5.60;;
76723;SDS011;65650;53.126;17.950;2023-02-19T15:17:24;36.00;;;14.40;;
76723;SDS011;65650;53.126;17.950;2023-02-19T15:19:53;17.70;;;6.30;;
76723;SDS011;65650;53.126;17.950;2023-02-19T15:22:23;25.90;;;11.30;;
76723;SDS011;65650;53.126;17.950;2023-02-19T15:24:51;14.60;;;5.40;;
76723;SDS011;65650;53.126;17.950;2023-02-19T15:27:18;25.30;;;9.30;;
76723;SDS011;65650;53.126;17.950;2023-02-19T15:29:49;21.40;;;7.50;;
76723;SDS011;65650;53.126;17.950;2023-02-19T15:32:21;19.70;;;6.80;;
76723;SDS011;65650;53.126;17.950;2023-02-19T15:34:58;18.20;;;6.10;;
76723;SDS011;65650;53.126;17.950;2023-02-19T15:37:28;18.00;;;6.10;;
76723;SDS011;65650;53.126;17.950;2023-02-19T15:39:58;17.90;;;6.60;;
76723;SDS011;65650;53.126;17.950;2023-02-19T15:42:31;15.90;;;4.60;;
76723;SDS011;65650;53.126;17.950;2023-02-19T15:47:52;11.20;;;3.90;;
76723;SDS011;65650;53.126;17.950;2023-02-19T15:50:30;12.20;;;4.20;;
76723;SDS011;65650;53.126;17.950;2023-02-19T15:53:01;22.10;;;5.40;;
76723;SDS011;65650;53.126;17.950;2023-02-19T15:55:37;14.50;;;4.00;;
76723;SDS011;65650;53.126;17.950;2023-02-19T15:58:18;17.80;;;6.00;;
76723;SDS011;65650;53.126;17.950;2023-02-19T16:00:51;14.50;;;4.40;;
76723;SDS011;65650;53.126;17.950;2023-02-19T16:03:21;16.30;;;3.90;;
76723;SDS011;65650;53.126;17.950;2023-02-19T16:06:00;19.30;;;5.60;;
76723;SDS011;65650;53.126;17.950;2023-02-19T16:08:34;23.90;;;6.70;;
76723;SDS011;65650;53.126;17.950;2023-02-19T16:11:03;19.80;;;4.90;;
76723;SDS011;65650;53.126;17.950;2023-02-19T16:13:33;22.40;;;6.40;;
76723;SDS011;65650;53.126;17.950;2023-02-19T16:18:49;19.80;;;5.90;;
76723;SDS011;65650;53.126;17.950;2023-02-19T16:21:21;23.00;;;6.80;;
76723;SDS011;65650;53.126;17.950;2023-02-19T16:23:51;23.00;;;7.80;;
76723;SDS011;65650;53.126;17.950;2023-02-19T16:26:23;20.80;;;6.30;;
76723;SDS011;65650;53.126;17.950;2023-02-19T16:28:50;25.40;;;7.20;;
76723;SDS011;65650;53.126;17.950;2023-02-19T16:31:19;26.70;;;8.30;;
76723;SDS011;65650;53.126;17.950;2023-02-19T16:33:51;26.20;;;7.60;;
76723;SDS011;65650;53.126;17.950;2023-02-19T16:36:19;28.70;;;8.10;;
76723;SDS011;65650;53.126;17.950;2023-02-19T16:46:51;34.40;;;10.00;;
76723;SDS011;65650;53.126;17.950;2023-02-19T16:49:24;40.50;;;12.90;;
76723;SDS011;65650;53.126;17.950;2023-02-19T16:51:52;40.60;;;14.40;;
76723;SDS011;65650;53.126;17.950;2023-02-19T16:54:21;45.70;;;14.40;;
76723;SDS011;65650;53.126;17.950;2023-02-19T16:56:48;50.10;;;17.70;;
76723;SDS011;65650;53.126;17.950;2023-02-19T16:59:15;45.30;;;15.70;;
76723;SDS011;65650;53.126;17.950;2023-02-19T17:01:41;55.60;;;18.40;;
76723;SDS011;65650;53.126;17.950;2023-02-19T17:04:10;32.20;;;11.80;;
76723;SDS011;65650;53.126;17.950;2023-02-19T17:06:38;45.00;;;16.40;;
76723;SDS011;65650;53.126;17.950;2023-02-19T17:09:06;34.90;;;11.50;;
76723;SDS011;65650;53.126;17.950;2023-02-19T17:11:34;58.00;;;17.00;;
76723;SDS011;65650;53.126;17.950;2023-02-19T17:14:01;122.30;;;40.90;;
76723;SDS011;65650;53.126;17.950;2023-02-19T17:16:29;46.60;;;15.90;;
76723;SDS011;65650;53.126;17.950;2023-02-19T17:19:01;40.40;;;14.20;;
76723;SDS011;65650;53.126;17.950;2023-02-19T17:21:30;43.40;;;14.20;;
76723;SDS011;65650;53.126;17.950;2023-02-19T17:23:58;53.30;;;17.90;;
76723;SDS011;65650;53.126;17.950;2023-02-19T17:26:26;46.10;;;15.40;;
76723;SDS011;65650;53.126;17.950;2023-02-19T17:28:55;30.20;;;9.90;;
76723;SDS011;65650;53.126;17.950;2023-02-19T17:31:23;33.70;;;10.10;;
76723;SDS011;65650;53.126;17.950;2023-02-19T17:33:50;36.40;;;10.70;;